sensor_id;sensor_type;location;lat;lon;timestamp;temperature;humidity
14875;DHT22;7529;48.170;17.138;2023-01-15T00:03:53;6.60;87.50
14875;DHT22;7529;48.170;17.138;2023-01-15T00:08:05;6.70;87.70
14875;DHT22;7529;48.170;17.138;2023-01-15T00:12:17;6.70;87.40
14875;DHT22;7529;48.170;17.138;2023-01-15T00:16:28;6.70;87.60
14875;DHT22;7529;48.170;17.138;2023-01-15T00:20:40;6.70;87.80
14875;DHT22;7529;48.170;17.138;2023-01-15T00:24:51;6.80;88.00
14875;DHT22;7529;48.170;17.138;2023-01-15T00:29:21;6.90;87.80
14875;DHT22;7529;48.170;17.138;2023-01-15T00:33:33;6.90;87.60
14875;DHT22;7529;48.170;17.138;2023-01-15T00:37:44;7.00;87.80
14875;DHT22;7529;48.170;17.138;2023-01-15T00:41:55;7.00;87.70
14875;DHT22;7529;48.170;17.138;2023-01-15T00:46:07;7.00;87.60
14875;DHT22;7529;48.170;17.138;2023-01-15T00:50:18;7.00;87.70
14875;DHT22;7529;48.170;17.138;2023-01-15T00:54:29;7.10;87.80
14875;DHT22;7529;48.170;17.138;2023-01-15T00:58:43;7.10;87.90
14875;DHT22;7529;48.170;17.138;2023-01-15T01:02:56;7.10;88.00
14875;DHT22;7529;48.170;17.138;2023-01-15T01:07:07;7.00;88.20
14875;DHT22;7529;48.170;17.138;2023-01-15T01:11:22;7.00;88.70
14875;DHT22;7529;48.170;17.138;2023-01-15T01:15:37;6.90;88.90
14875;DHT22;7529;48.170;17.138;2023-01-15T01:19:49;6.70;88.90
14875;DHT22;7529;48.170;17.138;2023-01-15T01:24:00;6.50;88.90
14875;DHT22;7529;48.170;17.138;2023-01-15T01:28:12;6.40;88.90
14875;DHT22;7529;48.170;17.138;2023-01-15T01:32:23;6.30;89.10
14875;DHT22;7529;48.170;17.138;2023-01-15T01:36:36;6.30;89.20
14875;DHT22;7529;48.170;17.138;2023-01-15T01:40:49;6.20;89.40
14875;DHT22;7529;48.170;17.138;2023-01-15T01:45:12;6.00;89.70
14875;DHT22;7529;48.170;17.138;2023-01-15T01:49:27;6.00;90.00
14875;DHT22;7529;48.170;17.138;2023-01-15T01:53:39;5.90;90.10
14875;DHT22;7529;48.170;17.138;2023-01-15T01:57:52;5.90;90.30
14875;DHT22;7529;48.170;17.138;2023-01-15T02:02:05;5.80;90.30
14875;DHT22;7529;48.170;17.138;2023-01-15T02:06:17;5.80;90.50
14875;DHT22;7529;48.170;17.138;2023-01-15T02:10:28;5.70;90.80
14875;DHT22;7529;48.170;17.138;2023-01-15T02:15:23;5.70;91.10
14875;DHT22;7529;48.170;17.138;2023-01-15T02:24:42;5.40;91.50
14875;DHT22;7529;48.170;17.138;2023-01-15T02:33:59;5.30;92.10
14875;DHT22;7529;48.170;17.138;2023-01-15T02:38:19;5.20;92.30
14875;DHT22;7529;48.170;17.138;2023-01-15T02:42:35;5.10;92.50
14875;DHT22;7529;48.170;17.138;2023-01-15T02:46:50;5.00;92.70
14875;DHT22;7529;48.170;17.138;2023-01-15T02:51:27;4.90;93.00
14875;DHT22;7529;48.170;17.138;2023-01-15T02:55:47;4.80;93.70
14875;DHT22;7529;48.170;17.138;2023-01-15T03:00:06;4.70;93.50
14875;DHT22;7529;48.170;17.138;2023-01-15T03:04:43;4.60;93.90
14875;DHT22;7529;48.170;17.138;2023-01-15T03:09:01;4.50;94.10
14875;DHT22;7529;48.170;17.138;2023-01-15T03:13:22;4.40;94.30
14875;DHT22;7529;48.170;17.138;2023-01-15T03:17:47;4.30;94.70
14875;DHT22;7529;48.170;17.138;2023-01-15T03:26:35;4.10;95.50
14875;DHT22;7529;48.170;17.138;2023-01-15T03:30:46;4.00;95.30
14875;DHT22;7529;48.170;17.138;2023-01-15T03:34:58;3.90;95.70
14875;DHT22;7529;48.170;17.138;2023-01-15T03:39:12;3.80;95.90
14875;DHT22;7529;48.170;17.138;2023-01-15T03:53:21;3.70;96.90
14875;DHT22;7529;48.170;17.138;2023-01-15T03:57:49;3.70;97.10
14875;DHT22;7529;48.170;17.138;2023-01-15T04:02:06;3.80;97.40
14875;DHT22;7529;48.170;17.138;2023-01-15T04:06:19;3.90;97.40
14875;DHT22;7529;48.170;17.138;2023-01-15T04:10:32;3.90;97.60
14875;DHT22;7529;48.170;17.138;2023-01-15T04:14:45;4.00;97.80
14875;DHT22;7529;48.170;17.138;2023-01-15T04:19:01;4.00;98.00
14875;DHT22;7529;48.170;17.138;2023-01-15T04:23:13;4.00;98.30
14875;DHT22;7529;48.170;17.138;2023-01-15T04:27:25;4.00;98.70
14875;DHT22;7529;48.170;17.138;2023-01-15T04:31:37;4.00;98.50
14875;DHT22;7529;48.170;17.138;2023-01-15T04:35:48;4.00;98.70
14875;DHT22;7529;48.170;17.138;2023-01-15T04:39:59;3.90;98.80
14875;DHT22;7529;48.170;17.138;2023-01-15T04:44:10;3.80;99.10
14875;DHT22;7529;48.170;17.138;2023-01-15T04:48:22;3.90;99.40
14875;DHT22;7529;48.170;17.138;2023-01-15T04:52:33;3.90;99.40
14875;DHT22;7529;48.170;17.138;2023-01-15T04:56:46;3.90;99.60
14875;DHT22;7529;48.170;17.138;2023-01-15T05:01:00;3.80;99.70
14875;DHT22;7529;48.170;17.138;2023-01-15T05:05:11;3.80;99.90
14875;DHT22;7529;48.170;17.138;2023-01-15T05:09:22;3.80;99.90
14875;DHT22;7529;48.170;17.138;2023-01-15T05:13:34;3.80;99.90
14875;DHT22;7529;48.170;17.138;2023-01-15T05:17:45;3.90;99.90
14875;DHT22;7529;48.170;17.138;2023-01-15T05:21:56;3.90;99.90
14875;DHT22;7529;48.170;17.138;2023-01-15T05:26:08;3.90;99.90
14875;DHT22;7529;48.170;17.138;2023-01-15T05:30:19;4.00;99.90
14875;DHT22;7529;48.170;17.138;2023-01-15T05:34:30;4.00;99.90
14875;DHT22;7529;48.170;17.138;2023-01-15T05:38:42;4.10;99.90
14875;DHT22;7529;48.170;17.138;2023-01-15T05:42:53;4.10;99.90
14875;DHT22;7529;48.170;17.138;2023-01-15T05:47:04;4.00;99.90
14875;DHT22;7529;48.170;17.138;2023-01-15T05:51:17;3.90;99.90
14875;DHT22;7529;48.170;17.138;2023-01-15T05:55:28;3.90;99.90
14875;DHT22;7529;48.170;17.138;2023-01-15T05:59:40;3.80;99.90
14875;DHT22;7529;48.170;17.138;2023-01-15T06:03:51;3.80;99.90
14875;DHT22;7529;48.170;17.138;2023-01-15T06:08:04;3.70;99.90
14875;DHT22;7529;48.170;17.138;2023-01-15T06:12:16;3.60;99.90
14875;DHT22;7529;48.170;17.138;2023-01-15T06:16:27;3.50;99.90
14875;DHT22;7529;48.170;17.138;2023-01-15T06:20:40;3.40;99.90
14875;DHT22;7529;48.170;17.138;2023-01-15T06:24:52;3.40;99.90
14875;DHT22;7529;48.170;17.138;2023-01-15T06:29:04;3.40;99.90
14875;DHT22;7529;48.170;17.138;2023-01-15T06:33:15;3.50;99.90
14875;DHT22;7529;48.170;17.138;2023-01-15T06:37:26;3.50;99.90
14875;DHT22;7529;48.170;17.138;2023-01-15T06:41:37;3.50;99.90
14875;DHT22;7529;48.170;17.138;2023-01-15T06:46:08;3.60;99.90
14875;DHT22;7529;48.170;17.138;2023-01-15T06:50:38;3.60;99.90
14875;DHT22;7529;48.170;17.138;2023-01-15T06:54:49;3.60;99.90
14875;DHT22;7529;48.170;17.138;2023-01-15T06:59:01;3.60;99.90
14875;DHT22;7529;48.170;17.138;2023-01-15T07:03:12;3.70;99.90
14875;DHT22;7529;48.170;17.138;2023-01-15T07:07:24;3.80;99.90
14875;DHT22;7529;48.170;17.138;2023-01-15T07:11:37;3.80;99.90
14875;DHT22;7529;48.170;17.138;2023-01-15T07:16:00;3.90;99.90
14875;DHT22;7529;48.170;17.138;2023-01-15T07:20:12;4.00;99.90
14875;DHT22;7529;48.170;17.138;2023-01-15T07:24:23;4.00;99.90
14875;DHT22;7529;48.170;17.138;2023-01-15T07:28:34;4.20;99.90
14875;DHT22;7529;48.170;17.138;2023-01-15T07:32:46;4.40;99.90
14875;DHT22;7529;48.170;17.138;2023-01-15T07:36:57;4.60;99.90
14875;DHT22;7529;48.170;17.138;2023-01-15T07:41:09;4.70;99.90
14875;DHT22;7529;48.170;17.138;2023-01-15T07:45:39;4.90;99.90
14875;DHT22;7529;48.170;17.138;2023-01-15T07:50:14;5.10;99.90
14875;DHT22;7529;48.170;17.138;2023-01-15T07:54:28;5.30;99.90
14875;DHT22;7529;48.170;17.138;2023-01-15T07:58:40;5.50;99.90
14875;DHT22;7529;48.170;17.138;2023-01-15T08:02:51;5.70;99.70
14875;DHT22;7529;48.170;17.138;2023-01-15T08:07:03;5.90;99.30
14875;DHT22;7529;48.170;17.138;2023-01-15T08:11:15;6.20;98.80
14875;DHT22;7529;48.170;17.138;2023-01-15T08:15:45;6.30;98.10
14875;DHT22;7529;48.170;17.138;2023-01-15T08:19:56;6.30;97.80
14875;DHT22;7529;48.170;17.138;2023-01-15T08:24:07;6.40;97.60
14875;DHT22;7529;48.170;17.138;2023-01-15T08:28:19;6.40;97.10
14875;DHT22;7529;48.170;17.138;2023-01-15T08:32:30;6.50;96.90
14875;DHT22;7529;48.170;17.138;2023-01-15T08:36:42;6.60;96.50
14875;DHT22;7529;48.170;17.138;2023-01-15T08:40:54;6.60;96.10
14875;DHT22;7529;48.170;17.138;2023-01-15T08:45:09;6.90;96.00
14875;DHT22;7529;48.170;17.138;2023-01-15T08:49:20;7.00;95.50
14875;DHT22;7529;48.170;17.138;2023-01-15T08:53:33;7.00;95.20
14875;DHT22;7529;48.170;17.138;2023-01-15T08:57:44;7.00;94.80
14875;DHT22;7529;48.170;17.138;2023-01-15T09:01:55;7.10;94.60
14875;DHT22;7529;48.170;17.138;2023-01-15T09:06:07;7.10;94.40
14875;DHT22;7529;48.170;17.138;2023-01-15T09:10:21;6.90;94.20
14875;DHT22;7529;48.170;17.138;2023-01-15T09:14:32;6.80;94.20
14875;DHT22;7529;48.170;17.138;2023-01-15T09:18:44;6.80;94.30
14875;DHT22;7529;48.170;17.138;2023-01-15T09:22:55;6.60;94.20
14875;DHT22;7529;48.170;17.138;2023-01-15T09:27:07;6.50;94.40
14875;DHT22;7529;48.170;17.138;2023-01-15T09:31:23;6.40;94.50
14875;DHT22;7529;48.170;17.138;2023-01-15T09:35:34;6.30;94.70
14875;DHT22;7529;48.170;17.138;2023-01-15T09:39:46;6.20;94.90
14875;DHT22;7529;48.170;17.138;2023-01-15T09:44:20;6.20;95.20
14875;DHT22;7529;48.170;17.138;2023-01-15T09:58:35;6.10;95.70
14875;DHT22;7529;48.170;17.138;2023-01-15T10:11:58;6.40;95.90
14875;DHT22;7529;48.170;17.138;2023-01-15T10:16:33;6.50;95.90
14875;DHT22;7529;48.170;17.138;2023-01-15T10:25:54;6.70;96.00
14875;DHT22;7529;48.170;17.138;2023-01-15T10:38:56;7.00;95.60
14875;DHT22;7529;48.170;17.138;2023-01-15T10:47:37;7.20;95.50
14875;DHT22;7529;48.170;17.138;2023-01-15T10:51:51;7.30;95.40
14875;DHT22;7529;48.170;17.138;2023-01-15T10:56:30;7.30;95.30
